Time;durP1;ratioP1;P1;durP2;ratioP2;P2;SDS_P1;SDS_P2;PMS_P1;PMS_P2;Temp;Humidity;BMP_temperature;BMP_pressure;BME280_temperature;BME280_humidity;BME280_pressure;Samples;Min_cycle;Max_cycle;Signal;HPM_P1;HPM_P2
2023/04/21 00:01:01;;;;;;;;;;;;;;;20.65;45.89;100393.42;103635;1286;62187;-83
2023/04/21 00:03:27;;;;;;;;;;;;;;;20.65;45.86;100386.29;103830;1288;62178;-82
2023/04/21 00:05:57;;;;;;;;;;;;;;;20.66;45.79;100379.64;103622;1288;62840;-83
2023/04/21 00:08:23;;;;;;;;;;;;;;;20.66;45.80;100372.86;103675;1285;76147;-83
2023/04/21 00:10:48;;;;;;;;;;;;;;;20.66;45.76;100363.89;103657;1286;62362;-82
2023/04/21 00:13:14;;;;;;;;;;;;;;;20.65;45.88;100375.16;103643;1286;62567;-82
2023/04/21 00:15:39;;;;;;;;;;;;;;;20.66;45.69;100382.65;103621;1286;63370;-83
2023/04/21 00:18:05;;;;;;;;;;;;;;;20.66;45.75;100382.47;103595;1288;62181;-83
2023/04/21 00:20:30;;;;;;;;;;;;;;;20.66;45.90;100381.52;103721;1288;62632;-83
2023/04/21 00:22:56;;;;;;;;;;;;;;;20.66;45.73;100387.80;103589;1286;62210;-83
2023/04/21 00:25:22;;;;;;;;;;;;;;;20.67;45.83;100388.65;103597;1283;62284;-83
2023/04/21 00:27:47;;;;;;;;;;;;;;;20.66;45.72;100388.86;103608;1288;62247;-82
2023/04/21 00:30:13;;;;;;;;;;;;;;;20.67;45.77;100380.26;103628;1298;62254;-84
2023/04/21 00:32:38;;;;;;;;;;;;;;;20.67;45.81;100371.14;103614;1289;62933;-82
2023/04/21 00:35:04;;;;;;;;;;;;;;;20.66;45.72;100364.20;103788;1288;63244;-83
2023/04/21 00:37:30;;;;;;;;;;;;;;;20.66;45.78;100361.14;103594;1286;62156;-82
2023/04/21 00:39:55;;;;;;;;;;;;;;;20.67;45.63;100350.93;103747;1287;62263;-83
2023/04/21 00:42:21;;;;;;;;;;;;;;;20.67;45.82;100345.20;103570;1286;62648;-84
2023/04/21 00:44:47;;;;;;;;;;;;;;;20.67;45.77;100340.91;103627;1288;62185;-82
2023/04/21 00:47:12;;;;;;;;;;;;;;;20.67;45.67;100335.90;103649;1283;62726;-82
2023/04/21 00:49:38;;;;;;;;;;;;;;;20.67;45.79;100333.77;103596;1288;62233;-81
2023/04/21 00:52:04;;;;;;;;;;;;;;;20.66;45.67;100333.26;103765;1286;62184;-82
2023/04/21 00:54:29;;;;;;;;;;;;;;;20.66;45.72;100330.40;103584;1288;62176;-83
2023/04/21 00:56:57;;;;;;;;;;;;;;;20.67;45.69;100327.50;103626;1288;63341;-83
2023/04/21 00:59:23;;;;;;;;;;;;;;;20.67;45.62;100322.13;103755;1288;62098;-82
2023/04/21 01:01:48;;;;;;;;;;;;;;;20.67;45.69;100318.90;103580;1288;62272;-83
2023/04/21 01:04:13;;;;;;;;;;;;;;;20.67;45.71;100311.76;103606;1288;63379;-83
2023/04/21 01:06:39;;;;;;;;;;;;;;;20.67;45.72;100304.59;103687;1288;62190;-81
2023/04/21 01:09:05;;;;;;;;;;;;;;;20.67;45.82;100304.78;103558;1285;62271;-83
2023/04/21 01:11:31;;;;;;;;;;;;;;;20.67;45.76;100301.38;103577;1286;63342;-83
2023/04/21 01:13:56;;;;;;;;;;;;;;;20.67;45.51;100298.87;103671;1288;62184;-82
2023/04/21 01:16:23;;;;;;;;;;;;;;;20.67;45.68;100297.11;103676;1288;62228;-84
2023/04/21 01:18:52;;;;;;;;;;;;;;;20.67;45.63;100297.78;103615;1289;74992;-83
2023/04/21 01:21:18;;;;;;;;;;;;;;;20.68;45.71;100297.56;103643;1284;62184;-83
2023/04/21 01:23:43;;;;;;;;;;;;;;;20.67;45.55;100299.02;103711;1289;62513;-83
2023/04/21 01:26:09;;;;;;;;;;;;;;;20.67;45.65;100299.21;103726;1288;62193;-83
2023/04/21 01:28:35;;;;;;;;;;;;;;;20.68;45.68;100295.44;103730;1288;62200;-83
2023/04/21 01:31:01;;;;;;;;;;;;;;;20.67;45.60;100297.59;103639;1283;62277;-83
2023/04/21 01:33:26;;;;;;;;;;;;;;;20.68;45.72;100297.94;103751;1288;62216;-82
2023/04/21 01:35:51;;;;;;;;;;;;;;;20.68;45.71;100298.30;103710;1288;62088;-83
2023/04/21 01:38:17;;;;;;;;;;;;;;;20.67;45.67;100297.95;103698;1288;62200;-84
2023/04/21 01:40:45;;;;;;;;;;;;;;;20.68;45.61;100299.90;103706;1289;62608;-82
2023/04/21 01:43:11;;;;;;;;;;;;;;;20.68;45.69;100299.02;103610;1289;62229;-82
2023/04/21 01:45:37;;;;;;;;;;;;;;;20.68;45.79;100299.36;103573;1288;62209;-83
2023/04/21 01:48:02;;;;;;;;;;;;;;;20.68;45.68;100300.61;103614;1289;62181;-82
2023/04/21 01:50:28;;;;;;;;;;;;;;;20.68;45.65;100295.77;103568;1288;62582;-83
2023/04/21 01:52:53;;;;;;;;;;;;;;;20.68;45.68;100289.71;103639;1289;62177;-82
2023/04/21 01:55:19;;;;;;;;;;;;;;;20.68;45.69;100293.80;103581;1285;62171;-83
2023/04/21 01:57:44;;;;;;;;;;;;;;;20.68;45.72;100288.61;103562;1289;62183;-83
2023/04/21 02:00:10;;;;;;;;;;;;;;;20.68;45.62;100285.74;103614;1283;62249;-82
2023/04/21 02:02:36;;;;;;;;;;;;;;;20.68;45.83;100290.73;103621;1288;62222;-83
2023/04/21 02:05:01;;;;;;;;;;;;;;;20.69;45.74;100290.20;103809;1289;62155;-83
2023/04/21 02:07:27;;;;;;;;;;;;;;;20.69;45.75;100294.30;103771;1288;62121;-83
2023/04/21 02:09:52;;;;;;;;;;;;;;;20.69;45.77;100294.13;103723;1289;62181;-83
2023/04/21 02:12:18;;;;;;;;;;;;;;;20.69;45.78;100292.14;103634;1288;62277;-82
2023/04/21 02:14:45;;;;;;;;;;;;;;;20.69;45.82;100288.23;103576;1288;62210;-83
2023/04/21 02:17:11;;;;;;;;;;;;;;;20.69;45.65;100290.18;103785;1288;62550;-83
2023/04/21 02:19:37;;;;;;;;;;;;;;;20.69;45.74;100291.59;103628;1289;62235;-83
2023/04/21 02:22:05;;;;;;;;;;;;;;;20.69;45.70;100295.17;103638;1288;62146;-82
2023/04/21 02:24:30;;;;;;;;;;;;;;;20.69;45.66;100297.84;103608;1289;62201;-84
2023/04/21 02:26:57;;;;;;;;;;;;;;;20.69;45.79;100297.13;103611;1289;63213;-82
2023/04/21 02:29:23;;;;;;;;;;;;;;;20.69;45.72;100294.64;103742;1292;62185;-83
2023/04/21 02:31:48;;;;;;;;;;;;;;;20.69;45.82;100294.96;103786;1288;62113;-83
2023/04/21 02:34:14;;;;;;;;;;;;;;;20.70;45.66;100294.23;103705;1289;72408;-84
2023/04/21 02:36:39;;;;;;;;;;;;;;;20.70;45.67;100292.42;103758;1296;62149;-83
2023/04/21 02:39:05;;;;;;;;;;;;;;;20.69;45.76;100294.43;103750;1286;62893;-83
2023/04/21 02:41:30;;;;;;;;;;;;;;;20.70;45.74;100292.63;103606;1287;62232;-83
2023/04/21 02:43:56;;;;;;;;;;;;;;;20.70;45.76;100288.88;103600;1289;62167;-83
2023/04/21 02:46:21;;;;;;;;;;;;;;;20.70;45.59;100287.43;103597;1289;63400;-82
2023/04/21 02:48:47;;;;;;;;;;;;;;;20.70;45.77;100287.95;103569;1290;63456;-83
2023/04/21 02:51:12;;;;;;;;;;;;;;;20.70;45.71;100284.75;103571;1289;62199;-83
2023/04/21 02:53:39;;;;;;;;;;;;;;;20.70;45.71;100277.98;103651;1289;62295;-83
2023/04/21 02:56:05;;;;;;;;;;;;;;;20.70;45.71;100277.95;103620;1288;62434;-84
2023/04/21 02:58:31;;;;;;;;;;;;;;;20.70;45.82;100282.95;103678;1286;62274;-83
2023/04/21 03:00:56;;;;;;;;;;;;;;;20.70;45.64;100284.02;103611;1289;62184;-83
2023/04/21 03:03:22;;;;;;;;;;;;;;;20.70;45.55;100286.70;103517;1283;62265;-83
2023/04/21 03:05:47;;;;;;;;;;;;;;;20.70;45.63;100293.14;103652;1289;62182;-82
2023/04/21 03:08:13;;;;;;;;;;;;;;;20.70;45.73;100294.05;103604;1283;62277;-82
2023/04/21 03:10:38;;;;;;;;;;;;;;;20.70;45.65;100297.96;103600;1288;63546;-82
2023/04/21 03:13:04;;;;;;;;;;;;;;;20.70;45.73;100301.92;103743;1289;62600;-83
2023/04/21 03:15:29;;;;;;;;;;;;;;;20.70;45.68;100302.23;103579;1285;62085;-83
2023/04/21 03:17:55;;;;;;;;;;;;;;;20.70;45.66;100302.23;103565;1283;62273;-83
2023/04/21 03:20:20;;;;;;;;;;;;;;;20.70;45.65;100305.27;103560;1292;62244;-82
2023/04/21 03:22:46;;;;;;;;;;;;;;;20.70;45.68;100306.55;103575;1288;62200;-82
2023/04/21 03:25:11;;;;;;;;;;;;;;;20.70;45.75;100311.35;103638;1288;62176;-83
2023/04/21 03:27:38;;;;;;;;;;;;;;;20.70;45.74;100314.23;103751;1283;62201;-83
2023/04/21 03:30:04;;;;;;;;;;;;;;;20.71;45.69;100313.10;103708;1289;62161;-83
2023/04/21 03:32:29;;;;;;;;;;;;;;;20.70;45.73;100318.83;103770;1288;62222;-83
2023/04/21 03:34:55;;;;;;;;;;;;;;;20.70;45.79;100320.82;103572;1288;62207;-83
2023/04/21 03:37:20;;;;;;;;;;;;;;;20.70;45.71;100323.86;103647;1289;62155;-84
2023/04/21 03:39:46;;;;;;;;;;;;;;;20.70;45.69;100325.84;103676;1284;62261;-83
2023/04/21 03:42:11;;;;;;;;;;;;;;;20.70;45.68;100323.38;103595;1288;62271;-83
2023/04/21 03:44:37;;;;;;;;;;;;;;;20.70;45.63;100330.33;103595;1289;63453;-83
2023/04/21 03:47:03;;;;;;;;;;;;;;;20.70;45.75;100334.42;103721;1297;62181;-84
2023/04/21 03:49:29;;;;;;;;;;;;;;;20.70;45.71;100336.73;103605;1286;62162;-83
2023/04/21 03:51:54;;;;;;;;;;;;;;;20.70;45.66;100338.35;103743;1283;62688;-82
2023/04/21 03:54:20;;;;;;;;;;;;;;;20.71;45.66;100345.64;103607;1289;62168;-83
2023/04/21 03:56:45;;;;;;;;;;;;;;;20.70;45.59;100347.45;103726;1289;62223;-83
2023/04/21 03:59:11;;;;;;;;;;;;;;;20.68;45.52;100344.21;103613;1286;62196;-83
2023/04/21 04:01:36;;;;;;;;;;;;;;;20.68;45.62;100349.59;103621;1288;62253;-82
2023/04/21 04:04:02;;;;;;;;;;;;;;;20.67;45.57;100352.85;103818;1289;62294;-83
2023/04/21 04:06:28;;;;;;;;;;;;;;;20.66;45.55;100357.09;103608;1283;62220;-82
2023/04/21 04:08:55;;;;;;;;;;;;;;;20.65;45.40;100359.83;103775;1288;73379;-82
2023/04/21 04:11:20;;;;;;;;;;;;;;;20.64;45.47;100367.77;104198;1288;62183;-82
2023/04/21 04:13:46;;;;;;;;;;;;;;;20.63;45.35;100377.33;104097;1285;62113;-83
2023/04/21 04:16:11;;;;;;;;;;;;;;;20.63;45.30;100375.03;103927;1288;62175;-84
2023/04/21 04:18:37;;;;;;;;;;;;;;;20.61;45.36;100379.40;104160;1283;62195;-83
2023/04/21 04:21:08;;;;;;;;;;;;;;;20.61;45.17;100384.80;103990;1283;62194;-83
2023/04/21 04:23:35;;;;;;;;;;;;;;;20.58;45.26;100391.25;103841;1288;75286;-84
2023/04/21 04:26:04;;;;;;;;;;;;;;;20.55;45.20;100389.00;103823;1283;62073;-82
2023/04/21 04:28:30;;;;;;;;;;;;;;;20.52;45.14;100394.77;104448;1285;62587;-82
2023/04/21 04:30:55;;;;;;;;;;;;;;;20.50;45.08;100398.86;104249;1283;62202;-84
2023/04/21 04:33:21;;;;;;;;;;;;;;;20.48;45.02;100398.99;104214;1283;62184;-83
2023/04/21 04:35:48;;;;;;;;;;;;;;;20.46;44.98;100400.79;104224;1288;62072;-84
2023/04/21 04:38:14;;;;;;;;;;;;;;;20.43;44.97;100411.16;104139;1288;62193;-84
2023/04/21 04:40:41;;;;;;;;;;;;;;;20.40;44.87;100414.97;104151;1283;62209;-84
2023/04/21 04:43:09;;;;;;;;;;;;;;;20.37;44.81;100421.05;104564;1282;62796;-83
2023/04/21 04:45:35;;;;;;;;;;;;;;;20.34;44.77;100421.28;104925;1283;62048;-81
2023/04/21 04:48:00;;;;;;;;;;;;;;;20.31;44.92;100425.09;104651;1283;62103;-82
2023/04/21 04:50:26;;;;;;;;;;;;;;;20.25;44.78;100424.99;105181;1283;62098;-82
2023/04/21 04:52:53;;;;;;;;;;;;;;;20.15;44.90;100427.02;105288;1283;62171;-82
2023/04/21 04:55:18;;;;;;;;;;;;;;;20.06;44.99;100423.89;105216;1283;62124;-83
2023/04/21 04:57:44;;;;;;;;;;;;;;;19.97;44.96;100418.99;105684;1284;62129;-83
2023/04/21 05:00:10;;;;;;;;;;;;;;;19.79;45.07;100420.59;105622;1285;62257;-83
2023/04/21 05:02:38;;;;;;;;;;;;;;;19.62;45.03;100418.42;105436;1286;62059;-82
2023/04/21 05:05:05;;;;;;;;;;;;;;;19.45;45.06;100420.69;105625;1282;75215;-81
2023/04/21 05:07:30;;;;;;;;;;;;;;;19.40;45.41;100427.13;105740;1283;61106;-83
2023/04/21 05:09:56;;;;;;;;;;;;;;;19.45;45.44;100422.86;105571;1283;62219;-83
2023/04/21 05:12:21;;;;;;;;;;;;;;;19.53;45.53;100422.65;105472;1283;62178;-83
2023/04/21 05:14:47;;;;;;;;;;;;;;;19.59;45.48;100418.45;105622;1283;62181;-80
2023/04/21 05:17:12;;;;;;;;;;;;;;;19.66;45.60;100419.95;105645;1282;60125;-82
2023/04/21 05:19:38;;;;;;;;;;;;;;;19.73;45.60;100417.83;105344;1282;60913;-82
2023/04/21 05:22:05;;;;;;;;;;;;;;;19.80;45.55;100416.64;105582;1282;62067;-81
2023/04/21 05:24:34;;;;;;;;;;;;;;;19.85;45.54;100414.30;105316;1283;72100;-81
2023/04/21 05:27:01;;;;;;;;;;;;;;;19.92;45.54;100412.03;105213;1283;76208;-81
2023/04/21 05:29:27;;;;;;;;;;;;;;;19.98;45.37;100408.59;105013;1282;61480;-80
2023/04/21 05:31:52;;;;;;;;;;;;;;;20.03;45.30;100410.88;105187;1283;62082;-81
2023/04/21 05:34:18;;;;;;;;;;;;;;;20.08;45.33;100404.77;104660;1288;62094;-81
2023/04/21 05:36:43;;;;;;;;;;;;;;;20.13;45.33;100404.79;104921;1288;62194;-81
2023/04/21 05:39:09;;;;;;;;;;;;;;;20.17;45.15;100400.91;104983;1288;62055;-81
2023/04/21 05:41:34;;;;;;;;;;;;;;;20.20;45.08;100395.13;105070;1282;62270;-81
2023/04/21 05:44:00;;;;;;;;;;;;;;;20.24;45.17;100399.13;105288;1282;62133;-82
2023/04/21 05:46:26;;;;;;;;;;;;;;;20.26;45.10;100401.50;105416;1282;62055;-81
2023/04/21 05:48:52;;;;;;;;;;;;;;;20.28;45.12;100394.98;105542;1282;63434;-82
2023/04/21 05:51:17;;;;;;;;;;;;;;;20.28;44.97;100399.41;105647;1283;60374;-82
2023/04/21 05:53:43;;;;;;;;;;;;;;;20.26;45.02;100398.63;105698;1283;61793;-82
2023/04/21 05:56:10;;;;;;;;;;;;;;;20.21;44.73;100404.77;105876;1283;61671;-83
2023/04/21 05:58:36;;;;;;;;;;;;;;;20.14;44.75;100395.63;105724;1285;71800;-82
2023/04/21 06:01:01;;;;;;;;;;;;;;;20.10;44.83;100388.93;105587;1288;62044;-83
2023/04/21 06:03:29;;;;;;;;;;;;;;;20.08;44.77;100390.13;105487;1282;60392;-83
2023/04/21 06:05:54;;;;;;;;;;;;;;;20.08;44.87;100386.38;105640;1282;62132;-83
2023/04/21 06:08:20;;;;;;;;;;;;;;;20.08;44.82;100380.11;105407;1285;62162;-83
2023/04/21 06:10:45;;;;;;;;;;;;;;;20.09;44.89;100381.83;105397;1282;61983;-83
2023/04/21 06:13:11;;;;;;;;;;;;;;;20.10;44.91;100384.59;105552;1283;62036;-82
2023/04/21 06:15:36;;;;;;;;;;;;;;;20.12;44.81;100394.02;105560;1282;61918;-81
2023/04/21 06:18:02;;;;;;;;;;;;;;;20.14;44.82;100402.23;105580;1282;62155;-82
2023/04/21 06:20:27;;;;;;;;;;;;;;;20.17;44.80;100410.98;105348;1287;60558;-82
2023/04/21 06:22:53;;;;;;;;;;;;;;;20.20;44.69;100411.24;105214;1283;62170;-82
2023/04/21 06:25:19;;;;;;;;;;;;;;;20.23;44.76;100413.50;105502;1282;62145;-82
2023/04/21 06:27:44;;;;;;;;;;;;;;;20.26;44.76;100412.24;105359;1282;62079;-82
2023/04/21 06:30:10;;;;;;;;;;;;;;;20.28;44.86;100411.36;105060;1282;62117;-81
2023/04/21 06:32:36;;;;;;;;;;;;;;;20.31;44.76;100410.27;105112;1282;60691;-81
2023/04/21 06:35:01;;;;;;;;;;;;;;;20.33;44.87;100413.55;105135;1282;62220;-82
2023/04/21 06:37:26;;;;;;;;;;;;;;;20.34;44.85;100405.92;105151;1283;62201;-82
2023/04/21 06:39:52;;;;;;;;;;;;;;;20.35;44.78;100401.19;105047;1282;60443;-82
2023/04/21 06:42:18;;;;;;;;;;;;;;;20.37;44.95;100399.08;104946;1282;62218;-82
2023/04/21 06:44:44;;;;;;;;;;;;;;;20.38;44.80;100402.98;105133;1283;72385;-82
2023/04/21 06:47:10;;;;;;;;;;;;;;;20.38;44.78;100400.12;105449;1283;62067;-82
2023/04/21 06:49:36;;;;;;;;;;;;;;;20.39;44.76;100398.75;105407;1282;62197;-82
2023/04/21 06:52:02;;;;;;;;;;;;;;;20.39;44.63;100403.73;105646;1282;62173;-83
2023/04/21 06:54:27;;;;;;;;;;;;;;;20.37;44.57;100408.35;105591;1283;60210;-82
2023/04/21 06:56:53;;;;;;;;;;;;;;;20.30;44.52;100404.09;105702;1285;62103;-82
2023/04/21 06:59:19;;;;;;;;;;;;;;;20.26;44.72;100404.52;105895;1286;61464;-82
2023/04/21 07:01:47;;;;;;;;;;;;;;;20.27;44.83;100406.61;105828;1282;61013;-83
2023/04/21 07:04:13;;;;;;;;;;;;;;;20.26;44.87;100406.70;105214;1283;732638;-82
2023/04/21 07:06:42;;;;;;;;;;;;;;;20.24;44.67;100413.09;105853;1282;72500;-82
2023/04/21 07:09:08;;;;;;;;;;;;;;;20.22;44.96;100410.92;105958;1283;75352;-82
2023/04/21 07:11:34;;;;;;;;;;;;;;;20.22;45.01;100413.77;105829;1282;62140;-83
2023/04/21 07:14:01;;;;;;;;;;;;;;;20.23;44.85;100414.98;106016;1288;61354;-82
2023/04/21 07:16:27;;;;;;;;;;;;;;;20.23;44.88;100412.98;105877;1285;62288;-83
2023/04/21 07:18:53;;;;;;;;;;;;;;;20.23;44.93;100410.66;105845;1283;61942;-82
2023/04/21 07:21:18;;;;;;;;;;;;;;;20.24;44.83;100415.79;105646;1283;62178;-82
2023/04/21 07:23:44;;;;;;;;;;;;;;;20.24;44.79;100416.09;105722;1285;62741;-82
2023/04/21 07:26:09;;;;;;;;;;;;;;;20.25;44.71;100421.58;105911;1282;60392;-82
2023/04/21 07:28:36;;;;;;;;;;;;;;;20.26;44.65;100421.73;105565;1282;62169;-82
2023/04/21 07:31:01;;;;;;;;;;;;;;;20.27;44.60;100421.46;105772;1283;60761;-82
2023/04/21 07:33:27;;;;;;;;;;;;;;;20.28;44.68;100424.98;105484;1284;60392;-82
2023/04/21 07:35:52;;;;;;;;;;;;;;;20.28;44.54;100427.27;105449;1282;60471;-82
2023/04/21 07:38:17;;;;;;;;;;;;;;;20.29;44.66;100431.55;105085;1286;62114;-82
2023/04/21 07:40:43;;;;;;;;;;;;;;;20.29;44.56;100430.13;105606;1282;60271;-82
2023/04/21 07:43:09;;;;;;;;;;;;;;;20.29;44.37;100431.38;105252;1282;76313;-82
2023/04/21 07:45:35;;;;;;;;;;;;;;;20.28;44.30;100432.65;105076;1282;62193;-82
2023/04/21 07:48:01;;;;;;;;;;;;;;;20.28;44.35;100435.19;105114;1282;62015;-82
2023/04/21 07:50:26;;;;;;;;;;;;;;;20.28;44.17;100434.99;104859;1284;62671;-83
2023/04/21 07:52:51;;;;;;;;;;;;;;;20.27;44.07;100439.14;104990;1282;62110;-82
2023/04/21 07:55:17;;;;;;;;;;;;;;;20.28;44.29;100441.61;105238;1282;75276;-82
2023/04/21 07:57:42;;;;;;;;;;;;;;;20.28;44.10;100435.34;105381;1282;62174;-82
2023/04/21 08:00:09;;;;;;;;;;;;;;;20.29;44.11;100436.52;105408;1283;60558;-82
2023/04/21 08:02:34;;;;;;;;;;;;;;;20.30;43.90;100444.84;105821;1282;61502;-82
2023/04/21 08:05:00;;;;;;;;;;;;;;;20.31;43.97;100443.15;105920;1282;61240;-83
2023/04/21 08:07:25;;;;;;;;;;;;;;;20.28;44.08;100436.05;105864;1286;60883;-82
2023/04/21 08:09:52;;;;;;;;;;;;;;;20.29;44.06;100434.00;105898;1285;60448;-83
2023/04/21 08:12:18;;;;;;;;;;;;;;;20.31;44.21;100434.73;105818;1284;60300;-83
2023/04/21 08:14:45;;;;;;;;;;;;;;;20.30;44.00;100432.71;105694;1285;61613;-83
2023/04/21 08:17:10;;;;;;;;;;;;;;;20.31;43.85;100431.03;105473;1285;62063;-82
2023/04/21 08:19:36;;;;;;;;;;;;;;;20.29;43.77;100430.79;105338;1282;62145;-82
2023/04/21 08:22:01;;;;;;;;;;;;;;;20.29;43.72;100435.09;105471;1282;62073;-82
2023/04/21 08:24:27;;;;;;;;;;;;;;;20.30;43.63;100436.98;105460;1282;62097;-82
2023/04/21 08:26:52;;;;;;;;;;;;;;;20.32;43.46;100433.60;105599;1283;62019;-82
2023/04/21 08:29:18;;;;;;;;;;;;;;;20.34;43.40;100438.81;105404;1282;76694;-82
2023/04/21 08:31:43;;;;;;;;;;;;;;;20.34;43.34;100440.75;105397;1282;62155;-82
2023/04/21 08:34:09;;;;;;;;;;;;;;;20.34;43.17;100440.24;105661;1283;62177;-81
2023/04/21 08:36:35;;;;;;;;;;;;;;;20.30;43.07;100442.02;105470;1282;61996;-81
2023/04/21 08:39:01;;;;;;;;;;;;;;;20.28;42.96;100444.08;105715;1283;60675;-81
2023/04/21 08:41:26;;;;;;;;;;;;;;;20.29;42.95;100444.04;105670;1282;60234;-81
2023/04/21 08:43:52;;;;;;;;;;;;;;;20.30;42.82;100445.21;105667;1283;63620;-81
2023/04/21 08:46:18;;;;;;;;;;;;;;;20.31;42.78;100440.68;105354;1282;62091;-82
2023/04/21 08:48:44;;;;;;;;;;;;;;;20.32;42.70;100441.66;105213;1284;60278;-82
2023/04/21 08:51:10;;;;;;;;;;;;;;;20.33;42.60;100440.52;105523;1283;62105;-82
2023/04/21 08:53:36;;;;;;;;;;;;;;;20.33;42.72;100438.91;104945;1282;62120;-82
2023/04/21 08:56:02;;;;;;;;;;;;;;;20.33;42.49;100439.63;105332;1282;62172;-82
2023/04/21 08:58:27;;;;;;;;;;;;;;;20.32;42.32;100441.45;106808;1285;61117;-82
2023/04/21 09:00:53;;;;;;;;;;;;;;;20.32;42.27;100447.55;106102;1283;73617;-82
2023/04/21 09:03:22;;;;;;;;;;;;;;;20.29;42.10;100439.89;105622;1283;61184;-81
2023/04/21 09:05:58;;;;;;;;;;;;;;;20.21;42.06;100442.23;105783;1283;60180;-82
2023/04/21 09:08:27;;;;;;;;;;;;;;;20.14;41.93;100443.10;105558;1283;61912;-83
2023/04/21 09:10:52;;;;;;;;;;;;;;;20.12;42.03;100448.66;105629;1282;72571;-81
2023/04/21 09:13:18;;;;;;;;;;;;;;;20.11;41.87;100444.25;105519;1288;62194;-81
2023/04/21 09:15:45;;;;;;;;;;;;;;;20.11;41.91;100441.59;105616;1282;62161;-81
2023/04/21 09:18:14;;;;;;;;;;;;;;;20.12;41.96;100439.73;105893;1283;60294;-81
2023/04/21 09:20:39;;;;;;;;;;;;;;;20.13;42.02;100447.69;105722;1282;74717;-81
2023/04/21 09:23:05;;;;;;;;;;;;;;;20.13;41.90;100445.00;105527;1282;62185;-81
2023/04/21 09:25:31;;;;;;;;;;;;;;;20.14;41.86;100446.02;105402;1282;60827;-82
2023/04/21 09:27:56;;;;;;;;;;;;;;;20.12;41.78;100444.33;105471;1283;62171;-81
2023/04/21 09:30:25;;;;;;;;;;;;;;;20.08;41.53;100445.20;105236;1283;62005;-81
2023/04/21 09:32:51;;;;;;;;;;;;;;;20.07;41.78;100441.67;105058;1282;63454;-81
2023/04/21 09:35:16;;;;;;;;;;;;;;;20.09;41.56;100449.16;105180;1282;60758;-81
2023/04/21 09:37:42;;;;;;;;;;;;;;;20.11;41.68;100448.14;105209;1284;62158;-81
2023/04/21 09:40:07;;;;;;;;;;;;;;;20.14;41.63;100448.86;105337;1282;62136;-81
2023/04/21 09:42:34;;;;;;;;;;;;;;;20.14;41.62;100446.71;104789;1282;71562;-82
2023/04/21 09:45:00;;;;;;;;;;;;;;;20.14;41.46;100447.95;106824;1282;75179;-82
2023/04/21 09:47:27;;;;;;;;;;;;;;;20.14;41.40;100447.63;106805;1282;60016;-83
2023/04/21 09:49:52;;;;;;;;;;;;;;;20.14;41.50;100445.30;105157;1283;62092;-82
2023/04/21 09:52:20;;;;;;;;;;;;;;;20.14;41.48;100446.20;105127;1282;62318;-81
2023/04/21 09:54:50;;;;;;;;;;;;;;;20.14;41.48;100447.27;105253;1283;76245;-81
2023/04/21 09:57:25;;;;;;;;;;;;;;;20.16;41.44;100443.19;105523;1285;62119;-81
2023/04/21 09:59:57;;;;;;;;;;;;;;;20.18;41.60;100450.84;106666;1283;60176;-82
2023/04/21 10:02:23;;;;;;;;;;;;;;;20.17;41.34;100451.55;106582;1282;72247;-81
2023/04/21 10:04:49;;;;;;;;;;;;;;;20.07;41.07;100451.16;106440;1283;60325;-81
2023/04/21 10:07:15;;;;;;;;;;;;;;;19.99;41.06;100446.16;106561;1282;60240;-81
2023/04/21 10:09:41;;;;;;;;;;;;;;;20.00;41.14;100444.89;106494;1283;60904;-82
2023/04/21 10:12:08;;;;;;;;;;;;;;;19.99;41.08;100446.23;106658;1283;60245;-81
2023/04/21 10:14:33;;;;;;;;;;;;;;;19.98;41.04;100440.53;106599;1282;60853;-82
2023/04/21 10:17:03;;;;;;;;;;;;;;;19.99;40.98;100441.00;106733;1282;60379;-82
2023/04/21 10:19:30;;;;;;;;;;;;;;;19.98;40.94;100440.73;106219;1282;59808;-81
2023/04/21 10:21:59;;;;;;;;;;;;;;;19.99;40.94;100439.45;106665;1282;72451;-82
2023/04/21 10:24:28;;;;;;;;;;;;;;;19.98;40.90;100441.25;106784;1282;75256;-82
2023/04/21 10:26:55;;;;;;;;;;;;;;;19.98;40.79;100445.33;106797;1283;60084;-81
2023/04/21 10:29:33;;;;;;;;;;;;;;;19.99;40.75;100444.06;105352;1282;62136;-81
2023/04/21 10:31:58;;;;;;;;;;;;;;;19.99;40.70;100448.16;105268;1282;73155;-81
2023/04/21 10:34:24;;;;;;;;;;;;;;;20.00;40.80;100447.34;105474;1282;60173;-81
2023/04/21 10:36:52;;;;;;;;;;;;;;;20.01;40.75;100448.05;105347;1282;60280;-82
2023/04/21 10:39:37;;;;;;;;;;;;;;;20.02;40.68;100449.22;105301;1282;62109;-81
2023/04/21 10:42:23;;;;;;;;;;;;;;;20.03;40.72;100447.86;105436;1282;72312;-82
2023/04/21 10:44:52;;;;;;;;;;;;;;;20.05;40.66;100448.64;105159;1286;74693;-81
2023/04/21 10:47:28;;;;;;;;;;;;;;;20.06;40.80;100447.11;104991;1281;60999;-81
2023/04/21 10:49:57;;;;;;;;;;;;;;;20.07;40.78;100448.80;105070;1286;60215;-81
2023/04/21 10:52:29;;;;;;;;;;;;;;;20.08;40.63;100445.73;105043;1283;72576;-82
2023/04/21 10:54:55;;;;;;;;;;;;;;;20.10;40.70;100449.52;105424;1282;75250;-82
2023/04/21 10:57:20;;;;;;;;;;;;;;;20.09;40.83;100452.94;105385;1282;61576;-81
2023/04/21 10:59:46;;;;;;;;;;;;;;;20.06;40.67;100450.48;105482;1282;62119;-81
2023/04/21 11:02:12;;;;;;;;;;;;;;;20.05;40.71;100450.40;105796;1282;61334;-81
2023/04/21 11:04:40;;;;;;;;;;;;;;;20.04;40.48;100448.90;106321;1282;60423;-82
2023/04/21 11:07:09;;;;;;;;;;;;;;;20.02;40.57;100447.75;105861;1282;62226;-82
2023/04/21 11:09:35;;;;;;;;;;;;;;;20.04;40.54;100446.86;105432;1282;62188;-82
2023/04/21 11:12:02;;;;;;;;;;;;;;;20.07;40.70;100447.76;105473;1288;60570;-81
2023/04/21 11:14:27;;;;;;;;;;;;;;;20.09;40.59;100445.96;105636;1284;61182;-82
2023/04/21 11:16:53;;;;;;;;;;;;;;;20.12;40.57;100448.14;104922;1282;62178;-82
2023/04/21 11:19:23;;;;;;;;;;;;;;;20.12;40.61;100447.23;104731;1283;60294;-82
2023/04/21 11:21:53;;;;;;;;;;;;;;;20.10;40.45;100443.73;105093;1283;73655;-81
2023/04/21 11:24:21;;;;;;;;;;;;;;;20.13;40.31;100439.69;104826;1282;62200;-81
2023/04/21 11:26:47;;;;;;;;;;;;;;;20.14;40.37;100436.35;105004;1282;64494;-81
2023/04/21 11:29:13;;;;;;;;;;;;;;;20.16;40.50;100434.04;104851;1283;62098;-81
2023/04/21 11:31:39;;;;;;;;;;;;;;;20.19;40.19;100436.02;104605;1285;62146;-81
2023/04/21 11:34:05;;;;;;;;;;;;;;;20.19;40.19;100431.90;104692;1282;62114;-81
2023/04/21 11:36:41;;;;;;;;;;;;;;;20.19;40.14;100430.44;104556;1282;62200;-81
2023/04/21 11:39:08;;;;;;;;;;;;;;;20.19;40.02;100433.65;104458;1282;62104;-82
2023/04/21 11:41:45;;;;;;;;;;;;;;;20.19;39.90;100432.41;104622;1282;73580;-81
2023/04/21 11:44:11;;;;;;;;;;;;;;;20.19;39.69;100430.61;104950;1283;75176;-81
2023/04/21 11:46:36;;;;;;;;;;;;;;;20.20;39.61;100432.14;104589;1282;62069;-81
2023/04/21 11:49:06;;;;;;;;;;;;;;;20.20;39.66;100424.80;104348;1286;62178;-82
2023/04/21 11:51:33;;;;;;;;;;;;;;;20.21;39.57;100423.52;104567;1282;72614;-82
2023/04/21 11:53:58;;;;;;;;;;;;;;;20.21;39.42;100422.43;104486;1283;62210;-82
2023/04/21 11:56:24;;;;;;;;;;;;;;;20.20;39.38;100421.94;104468;1289;63447;-82
2023/04/21 11:58:50;;;;;;;;;;;;;;;20.20;39.39;100422.69;104906;1282;62085;-83
2023/04/21 12:01:16;;;;;;;;;;;;;;;20.20;39.34;100416.44;106901;1282;59738;-82
2023/04/21 12:03:41;;;;;;;;;;;;;;;20.20;39.44;100413.60;105563;1283;61931;-82
2023/04/21 12:06:07;;;;;;;;;;;;;;;20.20;39.48;100419.48;105363;1286;62110;-82
2023/04/21 12:08:33;;;;;;;;;;;;;;;20.20;39.41;100420.40;105376;1282;62191;-82
2023/04/21 12:10:58;;;;;;;;;;;;;;;20.21;39.38;100417.44;105602;1282;62098;-82
2023/04/21 12:13:24;;;;;;;;;;;;;;;20.21;39.37;100416.73;105348;1282;62210;-82
2023/04/21 12:15:49;;;;;;;;;;;;;;;20.20;39.33;100413.19;105456;1282;62101;-81
2023/04/21 12:18:15;;;;;;;;;;;;;;;20.23;39.28;100409.26;104659;1283;62114;-82
2023/04/21 12:20:50;;;;;;;;;;;;;;;20.24;39.30;100404.88;104562;1282;62216;-82